createdAt,value
2022-12-05T00:01:28.300Z,32.63
2022-12-05T00:03:57.028Z,34.43
2022-12-05T00:06:25.339Z,33.73
2022-12-05T00:08:52.906Z,34.77
2022-12-05T00:11:22.798Z,33.23
2022-12-05T00:13:52.724Z,34.20
2022-12-05T00:16:23.016Z,33.73
2022-12-05T00:18:50.099Z,34.00
2022-12-05T00:21:18.947Z,35.63
2022-12-05T00:23:46.299Z,34.57
2022-12-05T00:26:14.026Z,34.80
2022-12-05T00:28:41.303Z,34.20
2022-12-05T00:31:12.219Z,33.40
2022-12-05T00:33:39.592Z,58.77
2022-12-05T00:36:09.276Z,37.10
2022-12-05T00:38:36.593Z,34.03
2022-12-05T00:41:04.274Z,36.20
2022-12-05T00:43:31.606Z,34.70
2022-12-05T00:46:01.578Z,34.10
2022-12-05T00:48:30.608Z,34.53
2022-12-05T00:51:02.188Z,34.63
2022-12-05T00:53:29.746Z,31.27
2022-12-05T00:56:01.201Z,32.50
2022-12-05T00:58:28.061Z,32.70
2022-12-05T01:00:55.028Z,32.47
2022-12-05T01:03:22.128Z,32.27
2022-12-05T01:05:50.406Z,33.40
2022-12-05T01:08:17.704Z,33.07
2022-12-05T01:10:53.118Z,32.30
2022-12-05T01:13:20.362Z,32.03
2022-12-05T01:15:47.501Z,32.10
2022-12-05T01:18:14.516Z,31.13
2022-12-05T01:20:41.518Z,30.90
2022-12-05T01:23:11.112Z,30.97
2022-12-05T01:25:40.712Z,30.93
2022-12-05T01:28:08.051Z,28.80
2022-12-05T01:30:38.778Z,28.97
2022-12-05T01:33:06.612Z,28.73
2022-12-05T01:35:34.081Z,27.30
2022-12-05T01:38:01.391Z,28.70
2022-12-05T01:40:29.974Z,27.80
2022-12-05T01:42:57.053Z,27.23
2022-12-05T01:45:32.318Z,27.23
2022-12-05T01:48:02.316Z,27.37
2022-12-05T01:50:29.430Z,26.50
2022-12-05T01:52:56.838Z,27.63
2022-12-05T01:55:24.297Z,26.40
2022-12-05T01:57:53.050Z,26.20
2022-12-05T02:00:21.166Z,25.90
2022-12-05T02:02:53.304Z,26.20
2022-12-05T02:05:23.080Z,25.87
2022-12-05T02:07:50.516Z,25.50
2022-12-05T02:10:18.152Z,25.90
2022-12-05T02:12:46.535Z,24.53
2022-12-05T02:15:26.943Z,24.97
2022-12-05T02:18:07.093Z,23.93
2022-12-05T02:20:44.685Z,23.70
2022-12-05T02:23:49.229Z,23.83
2022-12-05T02:26:47.980Z,23.83
2022-12-05T02:29:52.388Z,22.80
2022-12-05T02:32:33.250Z,22.57
2022-12-05T02:35:11.892Z,21.97
2022-12-05T02:38:04.899Z,23.03
2022-12-05T02:40:40.833Z,21.50
2022-12-05T02:43:13.392Z,21.50
2022-12-05T02:45:44.547Z,21.57
2022-12-05T02:48:33.447Z,21.27
2022-12-05T02:51:02.888Z,21.80
2022-12-05T02:53:31.318Z,20.93
2022-12-05T02:55:58.629Z,19.37
2022-12-05T02:58:34.053Z,20.50
2022-12-05T03:01:01.093Z,20.60
2022-12-05T03:03:30.516Z,18.73
2022-12-05T03:06:02.916Z,19.57
2022-12-05T03:08:40.333Z,18.83
2022-12-05T03:11:07.672Z,19.83
2022-12-05T03:13:42.221Z,18.83
2022-12-05T03:16:14.145Z,19.63
2022-12-05T03:18:46.549Z,19.10
2022-12-05T03:21:24.385Z,19.63
2022-12-05T03:23:54.897Z,18.80
2022-12-05T03:26:32.510Z,19.30
2022-12-05T03:29:12.527Z,18.63
2022-12-05T03:31:44.633Z,19.33
2022-12-05T03:34:17.717Z,19.37
2022-12-05T03:36:51.063Z,19.33
2022-12-05T03:39:23.862Z,19.57
2022-12-05T03:41:59.417Z,19.00
2022-12-05T03:44:31.821Z,18.83
2022-12-05T03:47:04.775Z,19.70
2022-12-05T03:49:35.890Z,18.40
2022-12-05T03:52:09.316Z,20.13
2022-12-05T03:54:40.842Z,19.90
2022-12-05T03:57:15.279Z,19.27
2022-12-05T03:59:48.366Z,19.30
2022-12-05T04:02:21.983Z,19.37
2022-12-05T04:04:55.670Z,19.50
2022-12-05T04:07:25.781Z,20.30
2022-12-05T04:09:57.964Z,20.10
2022-12-05T04:12:28.273Z,20.67
2022-12-05T04:15:00.360Z,19.47
2022-12-05T04:17:34.851Z,20.20
2022-12-05T04:20:23.643Z,19.60
2022-12-05T04:22:51.992Z,19.70
2022-12-05T04:25:35.347Z,20.93
2022-12-05T04:28:23.071Z,20.00
2022-12-05T04:31:00.893Z,19.67
2022-12-05T04:33:34.771Z,19.70
2022-12-05T04:36:05.808Z,20.70
2022-12-05T04:38:40.594Z,19.97
2022-12-05T04:41:12.294Z,19.50
2022-12-05T04:43:41.659Z,19.80
2022-12-05T04:46:13.617Z,19.73
2022-12-05T04:48:44.415Z,19.20
2022-12-05T04:51:18.021Z,19.07
2022-12-05T04:53:49.351Z,19.10
2022-12-05T04:56:18.987Z,17.47
2022-12-05T04:58:46.358Z,18.40
2022-12-05T05:01:20.078Z,19.20
2022-12-05T05:03:51.463Z,19.13
2022-12-05T05:06:18.519Z,18.50
2022-12-05T05:08:51.907Z,17.77
2022-12-05T05:11:21.400Z,18.37
2022-12-05T05:13:49.027Z,17.43
2022-12-05T05:16:18.375Z,18.43
2022-12-05T05:18:45.927Z,16.77
2022-12-05T05:21:19.023Z,17.80
2022-12-05T05:23:46.310Z,16.70
2022-12-05T05:26:15.409Z,17.90
2022-12-05T05:28:42.825Z,17.03
2022-12-05T05:31:09.837Z,17.17
2022-12-05T05:33:37.214Z,18.23
2022-12-05T05:36:05.530Z,16.93
2022-12-05T05:38:37.228Z,18.13
2022-12-05T05:41:05.875Z,18.10
2022-12-05T05:43:34.354Z,17.20
2022-12-05T05:46:03.587Z,17.57
2022-12-05T05:48:30.902Z,17.13
2022-12-05T05:50:59.084Z,17.10
2022-12-05T05:53:26.316Z,16.10
2022-12-05T05:55:53.364Z,18.47
2022-12-05T05:58:20.821Z,17.30
2022-12-05T06:00:49.067Z,16.93
2022-12-05T06:03:16.310Z,17.37
2022-12-05T06:05:44.122Z,17.43
2022-12-05T06:08:13.690Z,18.30
2022-12-05T06:10:40.852Z,19.03
2022-12-05T06:13:08.159Z,18.70
2022-12-05T06:15:35.059Z,18.17
2022-12-05T06:18:03.769Z,18.83
2022-12-05T06:20:30.688Z,18.80
2022-12-05T06:22:57.947Z,19.50
2022-12-05T06:25:24.868Z,20.57
2022-12-05T06:27:51.783Z,19.93
2022-12-05T06:30:18.767Z,19.77
2022-12-05T06:32:45.651Z,20.43
2022-12-05T06:35:16.753Z,20.07
2022-12-05T06:37:44.134Z,20.03
2022-12-05T06:40:12.738Z,19.97
2022-12-05T06:42:39.699Z,21.53
2022-12-05T06:45:07.718Z,20.00
2022-12-05T06:47:34.602Z,20.40
2022-12-05T06:50:01.960Z,19.67
2022-12-05T06:52:30.232Z,19.53
2022-12-05T06:54:57.504Z,21.03
2022-12-05T06:57:24.386Z,20.57
2022-12-05T06:59:51.733Z,19.93
2022-12-05T07:02:18.809Z,19.30
2022-12-05T07:04:46.357Z,19.07
2022-12-05T07:07:13.532Z,18.70
2022-12-05T07:09:51.602Z,19.27
2022-12-05T07:12:19.442Z,18.13
2022-12-05T07:14:49.435Z,18.97
2022-12-05T07:17:17.020Z,18.03
2022-12-05T07:19:44.320Z,16.83
2022-12-05T07:22:15.666Z,18.57
2022-12-05T07:24:45.331Z,17.97
2022-12-05T07:27:13.360Z,17.03
2022-12-05T07:29:40.720Z,16.60
2022-12-05T07:32:07.850Z,16.40
2022-12-05T07:34:35.493Z,15.90
2022-12-05T07:37:02.982Z,15.93
2022-12-05T07:39:29.928Z,16.13
2022-12-05T07:41:58.177Z,17.07
2022-12-05T07:44:25.132Z,17.60
2022-12-05T07:46:51.994Z,16.90
2022-12-05T07:49:18.921Z,15.80
2022-12-05T07:51:48.011Z,15.57
2022-12-05T07:54:14.885Z,15.40
2022-12-05T07:56:46.285Z,14.40
2022-12-05T07:59:16.137Z,14.33
2022-12-05T08:01:43.502Z,14.00
2022-12-05T08:04:15.105Z,13.47
2022-12-05T08:06:43.124Z,13.97
2022-12-05T08:09:10.037Z,15.10
2022-12-05T08:11:37.594Z,14.57
2022-12-05T08:14:05.607Z,18.20
2022-12-05T08:16:34.897Z,18.27
2022-12-05T08:19:03.512Z,16.67
2022-12-05T08:21:31.346Z,15.30
2022-12-05T08:23:58.515Z,14.73
2022-12-05T08:26:27.423Z,14.20
2022-12-05T08:28:55.957Z,14.17
2022-12-05T08:31:25.111Z,13.13
2022-12-05T08:33:58.830Z,13.93
2022-12-05T08:36:27.754Z,12.77
2022-12-05T08:38:56.709Z,13.13
2022-12-05T08:41:28.811Z,13.40
2022-12-05T08:43:56.529Z,12.67
2022-12-05T08:46:24.059Z,12.77
2022-12-05T08:48:53.130Z,13.10
2022-12-05T08:51:20.329Z,13.30
2022-12-05T08:53:47.741Z,13.37
2022-12-05T08:56:15.025Z,13.37
2022-12-05T08:58:41.986Z,12.87
2022-12-05T09:01:10.918Z,12.63
2022-12-05T09:03:40.137Z,12.30
2022-12-05T09:06:14.329Z,12.40
2022-12-05T09:08:42.346Z,12.13
2022-12-05T09:11:12.097Z,12.43
2022-12-05T09:13:39.215Z,12.93
2022-12-05T09:16:07.775Z,12.00
2022-12-05T09:18:35.537Z,12.30
2022-12-05T09:21:06.530Z,12.03
2022-12-05T09:23:35.415Z,11.37
2022-12-05T09:26:03.093Z,12.47
2022-12-05T09:28:30.656Z,11.57
2022-12-05T09:30:58.151Z,11.87
2022-12-05T09:33:25.472Z,11.50
2022-12-05T09:35:52.655Z,11.90
2022-12-05T09:38:19.525Z,10.30
2022-12-05T09:40:57.749Z,10.93
2022-12-05T09:43:33.389Z,10.63
2022-12-05T09:46:09.607Z,13.50
2022-12-05T09:48:40.861Z,14.67
2022-12-05T09:51:10.035Z,15.37
2022-12-05T09:53:39.889Z,10.97
2022-12-05T09:56:17.366Z,9.90
2022-12-05T09:58:46.026Z,9.90
2022-12-05T10:01:26.262Z,9.70
2022-12-05T10:04:13.240Z,9.07
2022-12-05T10:06:46.997Z,9.83
2022-12-05T10:09:28.375Z,9.47
2022-12-05T10:12:02.273Z,9.33
2022-12-05T10:14:37.603Z,9.97
2022-12-05T10:17:11.419Z,9.87
2022-12-05T10:19:42.722Z,10.47
2022-12-05T10:22:18.752Z,11.17
2022-12-05T10:24:50.880Z,12.30
2022-12-05T10:27:21.968Z,11.77
2022-12-05T10:29:53.978Z,10.67
2022-12-05T10:32:27.570Z,9.77
2022-12-05T10:35:07.029Z,9.00
2022-12-05T10:37:34.209Z,8.87
2022-12-05T10:40:01.410Z,8.50
2022-12-05T10:42:33.884Z,9.13
2022-12-05T10:45:04.801Z,8.97
2022-12-05T10:47:32.803Z,9.13
2022-12-05T10:50:04.848Z,8.43
2022-12-05T10:52:32.940Z,9.00
2022-12-05T10:55:02.933Z,10.40
2022-12-05T10:57:31.478Z,9.20
2022-12-05T11:00:09.724Z,11.50
2022-12-05T11:02:38.074Z,10.37
2022-12-05T11:05:05.655Z,10.43
2022-12-05T11:07:35.862Z,10.60
2022-12-05T11:10:21.106Z,11.50
2022-12-05T11:12:56.224Z,10.17
2022-12-05T11:15:27.960Z,9.83
2022-12-05T11:17:58.408Z,9.53
2022-12-05T11:20:38.225Z,10.27
2022-12-05T11:23:22.035Z,10.13
2022-12-05T11:25:49.150Z,10.13
2022-12-05T11:28:33.021Z,9.43
2022-12-05T11:31:02.243Z,9.77
2022-12-05T11:33:31.900Z,10.40
2022-12-05T11:36:06.050Z,28.93
2022-12-05T11:38:34.653Z,26.93
2022-12-05T11:41:17.454Z,11.90
2022-12-05T11:44:09.273Z,9.80
2022-12-05T11:46:46.779Z,9.67
2022-12-05T11:49:36.886Z,8.87
2022-12-05T11:52:14.082Z,9.37
2022-12-05T11:55:06.432Z,8.80
2022-12-05T11:58:00.318Z,8.77
2022-12-05T12:00:36.794Z,8.33
2022-12-05T12:03:36.397Z,8.47
2022-12-05T12:06:20.131Z,8.23
2022-12-05T12:08:56.850Z,8.00
2022-12-05T12:11:30.694Z,8.10
2022-12-05T12:14:03.549Z,7.27
2022-12-05T12:16:41.179Z,8.60
2022-12-05T12:19:18.624Z,8.40
2022-12-05T12:22:12.506Z,8.40
2022-12-05T12:24:57.028Z,8.50
2022-12-05T12:27:40.290Z,9.20
2022-12-05T12:30:15.213Z,8.50
2022-12-05T12:32:56.495Z,8.27
2022-12-05T12:35:29.184Z,8.57
2022-12-05T12:38:32.483Z,9.33
2022-12-05T12:41:08.913Z,8.33
2022-12-05T12:43:54.971Z,7.80
2022-12-05T12:46:36.922Z,7.93
2022-12-05T12:49:19.085Z,8.70
2022-12-05T12:51:53.017Z,8.10
2022-12-05T12:55:02.724Z,7.80
2022-12-05T12:57:55.163Z,8.00
2022-12-05T13:00:29.507Z,8.70
2022-12-05T13:03:03.906Z,8.70
2022-12-05T13:05:38.614Z,9.10
2022-12-05T13:08:11.848Z,11.20
2022-12-05T13:10:44.308Z,17.00
2022-12-05T13:13:15.721Z,15.03
2022-12-05T13:15:47.902Z,10.80
2022-12-05T13:18:17.395Z,10.53
2022-12-05T13:20:47.924Z,9.73
2022-12-05T13:23:17.578Z,9.83
2022-12-05T13:25:46.865Z,9.97
2022-12-05T13:28:28.683Z,10.27
2022-12-05T13:31:05.313Z,10.17
2022-12-05T13:33:36.638Z,9.07
2022-12-05T13:36:27.678Z,9.73
2022-12-05T13:39:21.045Z,8.77
2022-12-05T13:42:10.141Z,10.17
2022-12-05T13:44:41.175Z,11.00
2022-12-05T13:47:26.098Z,11.10
2022-12-05T13:49:57.210Z,11.33
2022-12-05T13:52:30.380Z,12.97
2022-12-05T13:55:02.227Z,10.97
2022-12-05T13:57:48.072Z,10.40
2022-12-05T14:00:30.397Z,10.90
2022-12-05T14:03:15.899Z,11.30
2022-12-05T14:05:51.555Z,10.37
2022-12-05T14:09:03.432Z,9.97
2022-12-05T14:11:31.835Z,9.80
2022-12-05T14:14:04.353Z,10.57
2022-12-05T14:16:44.736Z,11.40
2022-12-05T14:19:35.579Z,11.43
2022-12-05T14:22:54.139Z,11.10
2022-12-05T14:25:53.154Z,10.07
2022-12-05T14:29:10.727Z,9.70
2022-12-05T14:32:15.100Z,9.27
2022-12-05T14:35:01.611Z,12.23
2022-12-05T14:37:36.895Z,29.90
2022-12-05T14:40:30.495Z,31.67
2022-12-05T14:43:15.938Z,17.00
2022-12-05T14:46:15.311Z,14.30
2022-12-05T14:49:07.441Z,12.27
2022-12-05T14:52:13.445Z,12.87
2022-12-05T14:54:50.895Z,12.07
2022-12-05T14:57:51.103Z,12.33
2022-12-05T15:00:46.532Z,12.03
2022-12-05T15:03:36.595Z,12.30
2022-12-05T15:06:19.892Z,12.83
2022-12-05T15:09:21.212Z,13.33
2022-12-05T15:12:09.804Z,14.67
2022-12-05T15:15:17.639Z,14.63
2022-12-05T15:17:57.354Z,13.77
2022-12-05T15:20:51.008Z,14.20
2022-12-05T15:26:47.688Z,13.13
2022-12-05T15:29:33.416Z,13.73
2022-12-05T15:32:38.655Z,14.57
2022-12-05T15:35:17.655Z,15.77
2022-12-05T15:38:10.749Z,15.23
2022-12-05T15:40:54.884Z,15.83
2022-12-05T15:43:44.266Z,16.27
2022-12-05T15:46:31.972Z,16.43
2022-12-05T15:49:27.057Z,15.27
2022-12-05T15:52:33.772Z,16.00
2022-12-05T15:55:15.954Z,15.40
2022-12-05T15:57:55.482Z,13.03
2022-12-05T16:00:39.220Z,12.30
2022-12-05T16:03:23.220Z,13.83
2022-12-05T16:06:01.084Z,13.00
2022-12-05T16:08:47.367Z,14.53
2022-12-05T16:11:37.899Z,12.63
2022-12-05T16:14:36.935Z,11.50
2022-12-05T16:17:21.423Z,11.33
2022-12-05T16:23:35.985Z,11.67
2022-12-05T16:26:25.369Z,11.73
2022-12-05T16:29:03.212Z,12.23
2022-12-05T16:31:35.715Z,12.93
2022-12-05T16:34:22.864Z,12.60
2022-12-05T16:37:00.727Z,11.77
2022-12-05T16:39:45.410Z,11.67
2022-12-05T16:42:43.715Z,12.10
2022-12-05T16:45:50.387Z,12.00
2022-12-05T16:48:32.819Z,12.60
2022-12-05T16:51:23.107Z,13.77
2022-12-05T16:54:09.710Z,13.20
2022-12-05T16:56:53.531Z,13.57
2022-12-05T16:59:31.460Z,16.10
2022-12-05T17:02:21.419Z,13.90
2022-12-05T17:05:18.694Z,15.33
2022-12-05T17:07:59.487Z,14.63
2022-12-05T17:10:51.967Z,13.50
2022-12-05T17:13:25.047Z,13.17
2022-12-05T17:15:54.613Z,13.70
2022-12-05T17:18:32.272Z,13.63
2022-12-05T17:21:22.601Z,14.30
2022-12-05T17:24:07.459Z,14.73
2022-12-05T17:26:53.090Z,13.67
2022-12-05T17:29:47.866Z,13.73
2022-12-05T17:32:37.995Z,13.10
2022-12-05T17:35:21.578Z,14.60
2022-12-05T17:37:51.339Z,14.10
2022-12-05T17:40:35.279Z,14.70
2022-12-05T17:43:11.339Z,14.73
2022-12-05T17:45:53.931Z,14.57
2022-12-05T17:48:28.593Z,13.53
2022-12-05T17:51:07.703Z,15.33
2022-12-05T17:53:48.756Z,14.60
2022-12-05T17:56:20.650Z,15.23
2022-12-05T17:58:59.786Z,22.33
2022-12-05T18:01:30.205Z,16.23
2022-12-05T18:04:03.273Z,14.17
2022-12-05T18:06:38.424Z,14.37
2022-12-05T18:09:10.349Z,16.93
2022-12-05T18:11:38.575Z,18.33
2022-12-05T18:14:11.759Z,19.30
2022-12-05T18:16:45.679Z,16.67
2022-12-05T18:19:27.193Z,14.47
2022-12-05T18:22:00.698Z,16.17
2022-12-05T18:24:31.694Z,14.67
2022-12-05T18:27:03.960Z,15.30
2022-12-05T18:29:42.456Z,15.83
2022-12-05T18:32:21.794Z,14.60
2022-12-05T18:35:00.714Z,15.67
2022-12-05T18:37:31.995Z,13.40
2022-12-05T18:40:16.190Z,14.27
2022-12-05T18:42:51.742Z,14.10
2022-12-05T18:45:22.018Z,14.10
2022-12-05T18:48:16.336Z,14.37
2022-12-05T18:50:55.904Z,14.47
2022-12-05T18:53:35.582Z,15.73
2022-12-05T18:56:25.492Z,15.37
2022-12-05T18:58:55.631Z,15.00
2022-12-05T19:01:30.365Z,14.30
2022-12-05T19:04:06.620Z,14.20
2022-12-05T19:06:46.866Z,14.97
2022-12-05T19:09:29.701Z,15.10
2022-12-05T19:12:03.515Z,14.77
2022-12-05T19:14:40.206Z,13.63
2022-12-05T19:17:16.680Z,14.60
2022-12-05T19:19:55.344Z,13.93
2022-12-05T19:22:31.894Z,15.23
2022-12-05T19:25:19.442Z,17.80
2022-12-05T19:27:58.616Z,14.37
2022-12-05T19:30:28.538Z,12.80
2022-12-05T19:32:56.527Z,13.90
2022-12-05T19:35:26.464Z,13.57
2022-12-05T19:38:12.389Z,14.03
2022-12-05T19:41:02.879Z,13.03
2022-12-05T19:43:59.859Z,12.73
2022-12-05T19:46:35.666Z,14.03
2022-12-05T19:49:08.428Z,14.67
2022-12-05T19:51:35.797Z,14.30
2022-12-05T19:54:06.186Z,14.53
2022-12-05T19:56:42.806Z,15.20
2022-12-05T19:59:23.359Z,14.50
2022-12-05T20:02:00.252Z,12.60
2022-12-05T20:04:28.072Z,13.50
2022-12-05T20:07:10.965Z,13.27
2022-12-05T20:09:48.047Z,13.53
2022-12-05T20:12:22.345Z,14.50
2022-12-05T20:14:59.124Z,12.90
2022-12-05T20:17:33.488Z,13.43
2022-12-05T20:20:19.043Z,12.60
2022-12-05T20:22:58.566Z,13.37
2022-12-05T20:25:32.296Z,12.83
2022-12-05T20:28:08.639Z,13.87
2022-12-05T20:30:50.006Z,12.90
2022-12-05T20:33:25.251Z,13.97
2022-12-05T20:36:05.231Z,13.23
2022-12-05T20:38:38.897Z,14.37
2022-12-05T20:41:21.046Z,13.77
2022-12-05T20:44:13.050Z,13.47
2022-12-05T20:46:45.003Z,13.90
2022-12-05T20:49:22.086Z,13.47
2022-12-05T20:52:05.380Z,12.70
2022-12-05T20:54:40.579Z,14.23
2022-12-05T20:57:21.024Z,13.93
2022-12-05T20:59:48.060Z,13.43
2022-12-05T21:02:15.462Z,13.03
2022-12-05T21:04:42.625Z,13.33
2022-12-05T21:07:09.903Z,14.27
2022-12-05T21:09:37.348Z,13.73
2022-12-05T21:12:05.656Z,13.27
2022-12-05T21:14:35.530Z,13.47
2022-12-05T21:17:05.865Z,13.60
2022-12-05T21:19:39.877Z,13.07
2022-12-05T21:22:07.097Z,13.53
2022-12-05T21:24:37.408Z,12.77
2022-12-05T21:27:04.642Z,12.67
2022-12-05T21:29:32.342Z,13.30
2022-12-05T21:32:03.572Z,12.57
2022-12-05T21:34:31.206Z,12.83
2022-12-05T21:36:59.627Z,11.80
2022-12-05T21:39:41.473Z,12.40
2022-12-05T21:42:09.040Z,12.17
2022-12-05T21:44:40.479Z,16.03
2022-12-05T21:47:09.078Z,12.73
2022-12-05T21:49:36.707Z,12.40
2022-12-05T21:52:03.998Z,12.27
2022-12-05T21:54:31.353Z,13.17
2022-12-05T21:56:58.436Z,14.37
2022-12-05T21:59:25.960Z,13.07
2022-12-05T22:01:53.648Z,13.07
2022-12-05T22:04:22.778Z,13.77
2022-12-05T22:06:49.936Z,14.23
2022-12-05T22:09:17.543Z,14.20
2022-12-05T22:11:44.874Z,14.73
2022-12-05T22:14:12.491Z,15.07
2022-12-05T22:16:40.186Z,14.77
2022-12-05T22:19:08.049Z,15.77
2022-12-05T22:21:37.853Z,15.47
2022-12-05T22:24:06.241Z,16.47
2022-12-05T22:26:33.537Z,16.10
2022-12-05T22:29:00.935Z,17.03
2022-12-05T22:31:29.272Z,17.73
2022-12-05T22:33:57.097Z,16.53
2022-12-05T22:36:24.764Z,17.00
2022-12-05T22:38:54.672Z,16.47
2022-12-05T22:41:24.482Z,17.37
2022-12-05T22:43:57.879Z,16.93
2022-12-05T22:46:26.828Z,18.60
2022-12-05T22:48:54.258Z,16.20
2022-12-05T22:51:23.140Z,16.83
2022-12-05T22:53:51.811Z,17.17
2022-12-05T22:56:22.631Z,16.30
2022-12-05T22:58:54.307Z,19.03
2022-12-05T23:01:22.948Z,18.70
2022-12-05T23:03:54.370Z,17.53
2022-12-05T23:06:25.612Z,18.87
2022-12-05T23:08:53.933Z,19.00
2022-12-05T23:11:22.685Z,18.17
2022-12-05T23:13:50.717Z,18.17
2022-12-05T23:16:23.572Z,18.23
2022-12-05T23:18:54.193Z,19.47
2022-12-05T23:21:23.458Z,18.07
2022-12-05T23:23:53.665Z,19.80
2022-12-05T23:26:25.189Z,18.70
2022-12-05T23:28:53.169Z,18.20
2022-12-05T23:31:20.700Z,19.73
2022-12-05T23:33:51.177Z,18.93
2022-12-05T23:36:19.398Z,17.43
2022-12-05T23:38:47.687Z,18.03
2022-12-05T23:41:16.535Z,16.73
2022-12-05T23:43:46.005Z,16.30
2022-12-05T23:46:14.578Z,16.17
2022-12-05T23:48:42.154Z,16.07
2022-12-05T23:51:10.931Z,15.17
2022-12-05T23:53:39.785Z,15.07
2022-12-05T23:56:08.961Z,15.07
2022-12-05T23:58:36.268Z,14.70
